createdAt,value
2022-09-18T00:01:33.872Z,14.71
2022-09-18T00:04:06.303Z,14.64
2022-09-18T00:06:40.079Z,14.60
2022-09-18T00:09:14.306Z,14.58
2022-09-18T00:11:46.857Z,14.59
2022-09-18T00:14:22.813Z,14.47
2022-09-18T00:16:50.579Z,14.36
2022-09-18T00:19:19.120Z,14.30
2022-09-18T00:21:50.873Z,14.26
2022-09-18T00:24:19.083Z,14.29
2022-09-18T00:26:47.877Z,14.26
2022-09-18T00:29:17.951Z,14.30
2022-09-18T00:31:45.724Z,14.33
2022-09-18T00:34:15.608Z,14.26
2022-09-18T00:36:43.811Z,14.18
2022-09-18T00:39:13.015Z,14.10
2022-09-18T00:41:43.429Z,14.01
2022-09-18T00:44:41.692Z,13.98
2022-09-18T00:47:12.471Z,14.12
2022-09-18T00:50:19.923Z,14.02
2022-09-18T00:52:57.897Z,13.90
2022-09-18T00:55:32.456Z,13.89
2022-09-18T00:58:03.166Z,13.79
2022-09-18T01:00:31.574Z,13.75
2022-09-18T01:03:01.406Z,13.77
2022-09-18T01:05:52.976Z,13.71
2022-09-18T01:09:08.327Z,13.64
2022-09-18T01:12:16.724Z,13.69
2022-09-18T01:15:18.830Z,13.69
2022-09-18T01:18:24.508Z,13.85
2022-09-18T01:21:31.357Z,14.06
2022-09-18T01:24:42.711Z,13.98
2022-09-18T01:28:08.796Z,14.07
2022-09-18T01:30:45.932Z,14.11
2022-09-18T01:33:32.081Z,14.08
2022-09-18T01:36:05.095Z,14.07
2022-09-18T01:39:38.708Z,14.22
2022-09-18T01:42:08.562Z,14.24
2022-09-18T01:44:41.392Z,14.30
2022-09-18T01:47:14.189Z,14.25
2022-09-18T01:49:48.297Z,14.26
2022-09-18T01:52:33.099Z,14.26
2022-09-18T01:55:06.319Z,14.26
2022-09-18T01:58:00.145Z,14.35
2022-09-18T02:00:30.326Z,14.31
2022-09-18T02:03:23.109Z,14.21
2022-09-18T02:06:29.740Z,14.08
2022-09-18T02:09:01.874Z,13.96
2022-09-18T02:11:32.081Z,13.96
2022-09-18T02:14:12.678Z,14.01
2022-09-18T02:17:22.277Z,13.97
2022-09-18T02:20:10.114Z,14.04
2022-09-18T02:22:38.961Z,14.10
2022-09-18T02:25:08.940Z,14.14
2022-09-18T02:27:38.894Z,14.14
2022-09-18T02:30:08.992Z,14.14
2022-09-18T02:32:39.570Z,14.35
2022-09-18T02:35:10.281Z,14.42
2022-09-18T02:38:03.780Z,14.58
2022-09-18T02:40:59.641Z,14.48
2022-09-18T02:43:42.179Z,14.55
2022-09-18T02:46:38.577Z,14.58
2022-09-18T02:49:46.912Z,14.67
2022-09-18T02:52:31.393Z,14.58
2022-09-18T02:55:17.728Z,14.47
2022-09-18T02:58:07.419Z,14.55
2022-09-18T03:00:36.210Z,14.65
2022-09-18T03:03:15.200Z,14.65
2022-09-18T03:05:48.693Z,14.53
2022-09-18T03:08:16.735Z,14.53
2022-09-18T03:10:44.000Z,14.33
2022-09-18T03:13:11.261Z,14.32
2022-09-18T03:15:38.594Z,14.21
2022-09-18T03:18:05.905Z,14.22
2022-09-18T03:20:33.233Z,14.35
2022-09-18T03:23:04.309Z,14.37
2022-09-18T03:25:32.230Z,14.28
2022-09-18T03:27:59.433Z,14.15
2022-09-18T03:30:35.801Z,14.19
2022-09-18T03:33:03.566Z,14.35
2022-09-18T03:35:32.336Z,14.51
2022-09-18T03:37:59.733Z,14.51
2022-09-18T03:40:30.498Z,14.42
2022-09-18T03:42:58.254Z,14.35
2022-09-18T03:45:25.848Z,14.28
2022-09-18T03:47:53.454Z,14.14
2022-09-18T03:50:23.625Z,13.89
2022-09-18T03:52:51.750Z,13.68
2022-09-18T03:55:39.950Z,13.78
2022-09-18T03:58:25.602Z,13.66
2022-09-18T04:01:13.529Z,13.41
2022-09-18T04:03:59.445Z,13.25
2022-09-18T04:06:49.422Z,12.81
2022-09-18T04:09:36.674Z,12.37
2022-09-18T04:12:04.318Z,12.20
2022-09-18T04:14:32.553Z,12.04
2022-09-18T04:17:00.420Z,11.98
2022-09-18T04:19:27.653Z,11.89
2022-09-18T04:21:57.174Z,11.81
2022-09-18T04:24:24.615Z,11.71
2022-09-18T04:26:51.943Z,11.68
2022-09-18T04:29:22.077Z,11.69
2022-09-18T04:31:50.905Z,11.69
2022-09-18T04:34:20.516Z,11.70
2022-09-18T04:36:48.135Z,11.93
2022-09-18T04:39:15.468Z,11.91
2022-09-18T04:41:45.510Z,11.95
2022-09-18T04:44:14.456Z,11.89
2022-09-18T04:46:42.937Z,11.86
2022-09-18T04:49:11.414Z,11.80
2022-09-18T04:51:39.041Z,11.64
2022-09-18T04:54:06.393Z,11.48
2022-09-18T04:56:37.214Z,11.36
2022-09-18T04:59:05.569Z,11.30
2022-09-18T05:01:35.384Z,11.24
2022-09-18T05:04:08.649Z,11.18
2022-09-18T05:06:44.740Z,11.18
2022-09-18T05:09:12.196Z,11.28
2022-09-18T05:11:39.594Z,11.21
2022-09-18T05:14:06.996Z,11.24
2022-09-18T05:16:35.042Z,11.33
2022-09-18T05:19:31.114Z,11.47
2022-09-18T05:22:10.502Z,11.41
2022-09-18T05:24:42.181Z,11.45
2022-09-18T05:27:09.670Z,11.58
2022-09-18T05:29:37.646Z,11.59
2022-09-18T05:32:12.982Z,11.72
2022-09-18T05:34:40.417Z,11.74
2022-09-18T05:37:07.635Z,11.83
2022-09-18T05:39:34.922Z,12.01
2022-09-18T05:42:03.891Z,12.10
2022-09-18T05:44:31.306Z,12.32
2022-09-18T05:46:58.726Z,12.38
2022-09-18T05:49:28.172Z,12.39
2022-09-18T05:51:57.244Z,12.37
2022-09-18T05:54:24.666Z,12.47
2022-09-18T05:56:53.715Z,12.63
2022-09-18T05:59:21.209Z,12.62
2022-09-18T06:01:49.366Z,12.59
2022-09-18T06:04:24.624Z,12.77
2022-09-18T06:07:06.229Z,13.10
2022-09-18T06:09:33.810Z,13.42
2022-09-18T06:12:01.652Z,13.58
2022-09-18T06:14:31.209Z,13.68
2022-09-18T06:16:58.796Z,13.95
2022-09-18T06:19:26.498Z,14.22
2022-09-18T06:21:53.722Z,14.34
2022-09-18T06:24:22.102Z,14.33
2022-09-18T06:27:15.239Z,14.37
2022-09-18T06:29:43.651Z,14.44
2022-09-18T06:32:14.816Z,14.56
2022-09-18T06:34:43.004Z,14.58
2022-09-18T06:37:14.719Z,14.66
2022-09-18T06:39:45.692Z,14.65
2022-09-18T06:42:25.007Z,14.36
2022-09-18T06:45:09.326Z,14.19
2022-09-18T06:47:36.728Z,14.20
2022-09-18T06:50:05.460Z,14.39
2022-09-18T06:52:32.849Z,14.65
2022-09-18T06:55:03.613Z,15.29
2022-09-18T06:57:32.493Z,15.65
2022-09-18T06:59:59.927Z,15.71
2022-09-18T07:02:29.565Z,15.87
2022-09-18T07:05:02.534Z,15.86
2022-09-18T07:07:29.978Z,15.90
2022-09-18T07:09:57.858Z,15.96
2022-09-18T07:12:30.785Z,16.08
2022-09-18T07:15:01.365Z,16.18
2022-09-18T07:17:28.827Z,16.40
2022-09-18T07:19:57.555Z,16.55
2022-09-18T07:22:35.536Z,16.83
2022-09-18T07:25:05.981Z,17.16
2022-09-18T07:27:33.966Z,17.37
2022-09-18T07:30:01.301Z,17.43
2022-09-18T07:32:28.872Z,17.61
2022-09-18T07:34:58.244Z,17.57
2022-09-18T07:37:30.809Z,17.50
2022-09-18T07:40:12.902Z,17.50
2022-09-18T07:43:09.514Z,17.90
2022-09-18T07:45:44.597Z,17.81
2022-09-18T07:48:12.476Z,17.66
2022-09-18T07:50:46.475Z,17.38
2022-09-18T07:53:15.016Z,17.08
2022-09-18T07:55:47.139Z,16.97
2022-09-18T07:58:14.931Z,17.01
2022-09-18T08:01:03.095Z,17.21
2022-09-18T08:03:32.673Z,17.62
2022-09-18T08:06:20.365Z,18.34
2022-09-18T08:09:11.084Z,18.88
2022-09-18T08:11:58.822Z,18.98
2022-09-18T08:14:46.215Z,19.05
2022-09-18T08:17:33.829Z,19.05
2022-09-18T08:20:27.621Z,18.99
2022-09-18T08:23:09.178Z,19.39
2022-09-18T08:25:38.771Z,19.45
2022-09-18T08:28:08.014Z,19.38
2022-09-18T08:30:42.613Z,19.39
2022-09-18T08:33:11.653Z,19.49
2022-09-18T08:35:40.456Z,19.62
2022-09-18T08:38:19.852Z,19.70
2022-09-18T08:41:38.305Z,19.67
2022-09-18T08:44:36.774Z,19.83
2022-09-18T08:47:33.126Z,20.07
2022-09-18T08:50:31.336Z,20.06
2022-09-18T08:53:27.411Z,20.14
2022-09-18T08:56:19.097Z,20.30
2022-09-18T08:59:05.562Z,20.24
2022-09-18T09:01:52.488Z,20.17
2022-09-18T09:04:28.518Z,20.25
2022-09-18T09:07:12.264Z,20.45
2022-09-18T09:10:12.681Z,20.47
2022-09-18T09:13:25.872Z,20.52
2022-09-18T09:16:43.473Z,20.43
2022-09-18T09:19:34.418Z,20.78
2022-09-18T09:22:25.885Z,20.68
2022-09-18T09:25:16.445Z,20.67
2022-09-18T09:28:14.504Z,20.60
2022-09-18T09:31:09.926Z,20.75
2022-09-18T09:34:21.167Z,20.90
2022-09-18T09:37:14.758Z,20.97
2022-09-18T09:39:50.728Z,21.03
2022-09-18T09:42:35.191Z,21.02
2022-09-18T09:45:44.840Z,21.05
2022-09-18T09:48:39.717Z,21.02
2022-09-18T09:51:53.766Z,21.14
2022-09-18T09:54:21.614Z,21.19
2022-09-18T09:57:48.212Z,21.26
2022-09-18T10:00:20.448Z,21.18
2022-09-18T10:03:33.815Z,21.31
2022-09-18T10:06:33.481Z,21.56
2022-09-18T10:10:01.105Z,21.57
2022-09-18T10:12:52.320Z,21.64
2022-09-18T10:15:45.837Z,21.51
2022-09-18T10:18:32.978Z,21.60
2022-09-18T10:21:22.446Z,21.37
2022-09-18T10:24:47.774Z,21.70
2022-09-18T10:27:19.901Z,21.82
2022-09-18T10:29:47.471Z,21.73
2022-09-18T10:32:38.933Z,21.87
2022-09-18T10:35:29.231Z,21.97
2022-09-18T10:37:59.218Z,22.17
2022-09-18T10:40:39.621Z,22.10
2022-09-18T10:43:18.650Z,22.05
2022-09-18T10:45:56.193Z,22.01
2022-09-18T10:48:44.575Z,21.79
2022-09-18T10:51:18.478Z,22.20
2022-09-18T10:54:19.419Z,22.59
2022-09-18T10:57:39.634Z,22.79
2022-09-18T11:00:21.505Z,23.13
2022-09-18T11:03:18.117Z,23.46
2022-09-18T11:06:08.478Z,23.41
2022-09-18T11:08:44.144Z,23.49
2022-09-18T11:11:28.131Z,23.43
2022-09-18T11:14:20.063Z,23.82
2022-09-18T11:17:00.276Z,23.33
2022-09-18T11:19:40.212Z,23.06
2022-09-18T11:22:44.420Z,23.32
2022-09-18T11:25:32.812Z,22.89
2022-09-18T11:28:32.033Z,22.72
2022-09-18T11:31:19.257Z,22.34
2022-09-18T11:33:57.272Z,22.53
2022-09-18T11:36:33.646Z,22.44
2022-09-18T11:39:21.428Z,22.40
2022-09-18T11:41:54.222Z,22.64
2022-09-18T11:44:32.903Z,22.68
2022-09-18T11:47:42.179Z,22.68
2022-09-18T11:50:19.667Z,22.48
2022-09-18T11:53:42.145Z,22.46
2022-09-18T11:56:19.294Z,22.32
2022-09-18T11:58:56.369Z,22.42
2022-09-18T12:01:46.319Z,22.35
2022-09-18T12:04:41.589Z,22.49
2022-09-18T12:07:54.115Z,22.44
2022-09-18T12:11:11.118Z,22.66
2022-09-18T12:14:18.279Z,22.90
2022-09-18T12:17:43.674Z,22.90
2022-09-18T12:20:31.709Z,22.52
2022-09-18T12:23:02.008Z,22.62
2022-09-18T12:26:25.980Z,23.09
2022-09-18T12:29:56.877Z,22.83
2022-09-18T12:33:06.624Z,22.74
2022-09-18T12:36:24.272Z,22.54
2022-09-18T12:40:07.025Z,22.87
2022-09-18T12:43:03.032Z,22.77
2022-09-18T12:45:56.459Z,22.57
2022-09-18T12:48:59.842Z,22.81
2022-09-18T12:51:47.856Z,23.03
2022-09-18T12:55:03.867Z,22.86
2022-09-18T12:57:53.591Z,22.75
2022-09-18T13:00:22.602Z,23.10
2022-09-18T13:03:14.936Z,22.96
2022-09-18T13:05:57.854Z,23.09
2022-09-18T13:08:36.965Z,23.03
2022-09-18T13:11:45.554Z,23.05
2022-09-18T13:14:39.085Z,23.06
2022-09-18T13:17:43.849Z,23.11
2022-09-18T13:20:34.369Z,23.08
2022-09-18T13:23:02.372Z,22.88
2022-09-18T13:25:39.228Z,23.09
2022-09-18T13:28:14.664Z,23.14
2022-09-18T13:30:47.073Z,23.14
2022-09-18T13:33:27.568Z,23.23
2022-09-18T13:35:58.296Z,23.27
2022-09-18T13:38:28.686Z,23.34
2022-09-18T13:41:12.391Z,23.62
2022-09-18T13:43:45.351Z,23.87
2022-09-18T13:46:49.596Z,24.37
2022-09-18T13:49:48.423Z,25.60
2022-09-18T13:52:34.121Z,25.42
2022-09-18T13:55:13.988Z,25.61
2022-09-18T13:57:48.745Z,25.98
2022-09-18T14:00:19.343Z,25.49
2022-09-18T14:03:07.975Z,26.71
2022-09-18T14:05:45.209Z,26.55
2022-09-18T14:08:22.309Z,25.61
2022-09-18T14:11:16.102Z,24.36
2022-09-18T14:13:55.383Z,25.10
2022-09-18T14:16:40.766Z,26.06
2022-09-18T14:19:32.434Z,26.32
2022-09-18T14:22:06.459Z,26.22
2022-09-18T14:24:49.886Z,26.09
2022-09-18T14:27:53.429Z,26.27
2022-09-18T14:30:32.167Z,26.03
2022-09-18T14:33:11.635Z,26.39
2022-09-18T14:36:06.016Z,27.08
2022-09-18T14:38:41.052Z,27.65
2022-09-18T14:41:32.019Z,27.40
2022-09-18T14:44:07.005Z,27.66
2022-09-18T14:46:34.327Z,28.42
2022-09-18T14:49:03.199Z,27.80
2022-09-18T14:51:44.792Z,28.11
2022-09-18T14:54:40.506Z,27.20
2022-09-18T14:57:59.183Z,27.56
2022-09-18T15:00:48.660Z,26.59
2022-09-18T15:03:31.647Z,27.62
2022-09-18T15:06:30.883Z,27.54
2022-09-18T15:08:59.129Z,27.81
2022-09-18T15:11:47.043Z,27.71
2022-09-18T15:14:46.823Z,27.07
2022-09-18T15:17:29.584Z,27.45
2022-09-18T15:20:16.192Z,27.75
2022-09-18T15:22:55.873Z,26.34
2022-09-18T15:25:40.464Z,27.36
2022-09-18T15:28:11.098Z,28.22
2022-09-18T15:30:39.678Z,29.16
2022-09-18T15:33:21.177Z,28.24
2022-09-18T15:36:04.717Z,28.60
2022-09-18T15:38:55.495Z,27.68
2022-09-18T15:41:47.774Z,27.39
2022-09-18T15:44:34.313Z,27.83
2022-09-18T15:47:39.354Z,26.90
2022-09-18T15:50:12.631Z,28.61
2022-09-18T15:52:52.403Z,28.65
2022-09-18T15:55:26.044Z,27.45
2022-09-18T15:58:04.260Z,26.90
2022-09-18T16:00:37.197Z,27.20
2022-09-18T16:03:16.774Z,26.47
2022-09-18T16:05:56.173Z,27.44
2022-09-18T16:08:29.837Z,28.50
2022-09-18T16:10:59.807Z,27.97
2022-09-18T16:13:39.008Z,28.19
2022-09-18T16:16:11.450Z,27.96
2022-09-18T16:18:56.044Z,27.70
2022-09-18T16:21:30.223Z,27.39
2022-09-18T16:24:01.331Z,27.35
2022-09-18T16:26:35.913Z,26.94
2022-09-18T16:29:19.549Z,26.79
2022-09-18T16:31:47.187Z,27.64
2022-09-18T16:34:28.740Z,27.76
2022-09-18T16:36:56.604Z,27.41
2022-09-18T16:39:26.797Z,26.73
2022-09-18T16:41:54.571Z,26.96
2022-09-18T16:44:24.913Z,25.49
2022-09-18T16:47:09.516Z,24.30
2022-09-18T16:49:45.611Z,23.90
2022-09-18T16:52:13.850Z,23.46
2022-09-18T16:54:41.439Z,23.32
2022-09-18T16:57:21.698Z,22.97
2022-09-18T16:59:52.692Z,22.60
2022-09-18T17:02:24.357Z,22.43
2022-09-18T17:04:53.396Z,22.33
2022-09-18T17:07:20.813Z,22.30
2022-09-18T17:09:48.184Z,22.06
2022-09-18T17:12:15.576Z,22.03
2022-09-18T17:14:43.242Z,21.91
2022-09-18T17:17:11.523Z,21.82
2022-09-18T17:19:41.374Z,21.71
2022-09-18T17:22:09.262Z,21.70
2022-09-18T17:24:38.810Z,21.56
2022-09-18T17:27:06.395Z,21.49
2022-09-18T17:29:33.909Z,21.30
2022-09-18T17:32:01.495Z,21.22
2022-09-18T17:34:29.156Z,21.16
2022-09-18T17:36:56.682Z,21.11
2022-09-18T17:39:24.448Z,21.01
2022-09-18T17:41:52.023Z,20.89
2022-09-18T17:44:20.171Z,20.75
2022-09-18T17:46:51.321Z,20.68
2022-09-18T17:49:19.708Z,20.62
2022-09-18T17:51:49.114Z,20.50
2022-09-18T17:54:17.112Z,20.38
2022-09-18T17:56:45.373Z,20.27
2022-09-18T17:59:14.192Z,20.16
2022-09-18T18:01:47.180Z,20.11
2022-09-18T18:04:15.375Z,19.98
2022-09-18T18:06:42.835Z,19.92
2022-09-18T18:09:10.281Z,19.86
2022-09-18T18:11:38.634Z,19.76
2022-09-18T18:14:06.055Z,19.77
2022-09-18T18:16:34.617Z,19.73
2022-09-18T18:19:06.219Z,19.67
2022-09-18T18:21:34.701Z,19.53
2022-09-18T18:24:08.970Z,19.48
2022-09-18T18:26:38.733Z,19.49
2022-09-18T18:29:13.486Z,19.37
2022-09-18T18:31:43.203Z,19.32
2022-09-18T18:34:12.325Z,19.30
2022-09-18T18:36:41.811Z,19.21
2022-09-18T18:39:12.873Z,19.27
2022-09-18T18:41:41.354Z,19.23
2022-09-18T18:44:11.420Z,19.15
2022-09-18T18:46:42.887Z,19.08
2022-09-18T18:49:17.210Z,19.10
2022-09-18T18:51:51.834Z,19.14
2022-09-18T18:54:27.236Z,18.99
2022-09-18T18:57:19.802Z,18.89
2022-09-18T18:59:57.234Z,18.82
2022-09-18T19:02:26.788Z,18.75
2022-09-18T19:07:47.839Z,18.68
2022-09-18T19:10:26.662Z,18.75
2022-09-18T19:13:00.535Z,18.88
2022-09-18T19:15:38.600Z,18.79
2022-09-18T19:18:12.609Z,18.82
2022-09-18T19:20:46.295Z,18.78
2022-09-18T19:23:38.492Z,18.65
2022-09-18T19:26:14.879Z,18.69
2022-09-18T19:28:58.783Z,18.66
2022-09-18T19:32:03.913Z,18.76
2022-09-18T19:34:36.832Z,18.50
2022-09-18T19:37:23.872Z,18.19
2022-09-18T19:39:56.363Z,18.01
2022-09-18T19:42:31.990Z,18.31
2022-09-18T19:45:16.085Z,18.45
2022-09-18T19:47:53.368Z,18.36
2022-09-18T19:50:49.522Z,18.37
2022-09-18T19:53:30.202Z,18.49
2022-09-18T19:56:33.139Z,18.54
2022-09-18T19:59:14.384Z,18.47
2022-09-18T20:01:45.622Z,18.42
2022-09-18T20:04:18.675Z,18.39
2022-09-18T20:06:56.032Z,18.39
2022-09-18T20:09:52.568Z,18.40
2022-09-18T20:12:27.178Z,18.42
2022-09-18T20:15:10.183Z,18.43
2022-09-18T20:17:40.726Z,18.40
2022-09-18T20:20:21.865Z,18.42
2022-09-18T20:23:08.441Z,18.42
2022-09-18T20:25:49.919Z,18.43
2022-09-18T20:28:29.149Z,18.45
2022-09-18T20:31:09.076Z,18.36
2022-09-18T20:33:45.422Z,18.24
2022-09-18T20:36:37.276Z,18.28
2022-09-18T20:39:07.833Z,18.09
2022-09-18T20:41:43.353Z,18.08
2022-09-18T20:44:12.425Z,18.02
2022-09-18T20:46:42.472Z,17.95
2022-09-18T20:49:12.558Z,18.04
2022-09-18T20:51:39.810Z,18.10
2022-09-18T20:54:08.006Z,18.05
2022-09-18T20:56:44.759Z,18.03
2022-09-18T20:59:16.570Z,17.99
2022-09-18T21:01:48.699Z,17.89
2022-09-18T21:04:20.021Z,17.93
2022-09-18T21:06:55.931Z,18.01
2022-09-18T21:09:30.953Z,18.03
2022-09-18T21:11:59.368Z,18.09
2022-09-18T21:14:27.590Z,18.03
2022-09-18T21:16:56.079Z,18.07
2022-09-18T21:19:26.028Z,18.05
2022-09-18T21:21:53.410Z,17.98
2022-09-18T21:24:22.290Z,17.81
2022-09-18T21:26:50.290Z,17.65
2022-09-18T21:29:22.583Z,17.61
2022-09-18T21:31:59.606Z,17.50
2022-09-18T21:34:36.523Z,17.46
2022-09-18T21:37:08.172Z,17.41
2022-09-18T21:39:35.954Z,17.34
2022-09-18T21:42:09.554Z,17.32
2022-09-18T21:44:37.824Z,17.20
2022-09-18T21:47:08.251Z,17.05
2022-09-18T21:49:35.838Z,16.89
2022-09-18T21:52:07.555Z,16.75
2022-09-18T21:54:35.321Z,16.59
2022-09-18T21:57:03.489Z,16.50
2022-09-18T21:59:31.988Z,16.44
2022-09-18T22:02:00.623Z,16.34
2022-09-18T22:04:34.049Z,16.27
2022-09-18T22:07:02.639Z,16.20
2022-09-18T22:09:38.675Z,16.16
2022-09-18T22:12:08.257Z,16.15
2022-09-18T22:14:38.243Z,16.08
2022-09-18T22:17:08.999Z,16.01
2022-09-18T22:19:41.114Z,15.99
2022-09-18T22:22:11.160Z,15.93
2022-09-18T22:24:39.143Z,15.84
2022-09-18T22:27:08.185Z,15.80
2022-09-18T22:29:39.812Z,15.75
2022-09-18T22:32:07.370Z,15.64
2022-09-18T22:34:35.051Z,15.60
2022-09-18T22:37:03.321Z,15.58
2022-09-18T22:39:31.088Z,15.54
2022-09-18T22:41:58.589Z,15.46
2022-09-18T22:44:26.585Z,15.49
2022-09-18T22:46:54.365Z,15.48
2022-09-18T22:49:23.600Z,15.50
2022-09-18T22:51:52.124Z,15.46
2022-09-18T22:54:26.440Z,15.46
2022-09-18T22:56:55.179Z,15.47
2022-09-18T22:59:25.692Z,15.41
2022-09-18T23:01:59.623Z,15.37
2022-09-18T23:04:30.313Z,15.31
2022-09-18T23:06:59.148Z,15.29
2022-09-18T23:09:27.406Z,15.25
2022-09-18T23:11:55.905Z,15.21
2022-09-18T23:14:28.156Z,15.18
2022-09-18T23:16:58.343Z,15.17
2022-09-18T23:19:33.283Z,15.12
2022-09-18T23:22:01.501Z,15.08
2022-09-18T23:24:29.696Z,15.04
2022-09-18T23:27:01.238Z,14.97
2022-09-18T23:29:32.051Z,14.90
2022-09-18T23:31:59.762Z,14.91
2022-09-18T23:34:33.608Z,14.96
2022-09-18T23:37:04.717Z,14.90
2022-09-18T23:39:41.485Z,14.91
2022-09-18T23:42:10.228Z,14.88
2022-09-18T23:44:41.115Z,14.83
2022-09-18T23:47:09.121Z,14.72
2022-09-18T23:49:39.466Z,14.65
2022-09-18T23:52:07.424Z,14.61
2022-09-18T23:54:37.209Z,14.59
2022-09-18T23:57:04.728Z,14.54
2022-09-18T23:59:32.229Z,14.60
